sensor_id;sensor_type;location;lat;lon;timestamp;temperature;humidity
38592;DHT22;24356;48.460;11.450;2022-09-27T00:01:00;10.80;84.00
38592;DHT22;24356;48.460;11.450;2022-09-27T00:03:27;10.80;84.10
38592;DHT22;24356;48.460;11.450;2022-09-27T00:06:04;10.80;84.50
38592;DHT22;24356;48.460;11.450;2022-09-27T00:08:31;10.80;84.50
38592;DHT22;24356;48.460;11.450;2022-09-27T00:10:59;10.80;84.80
38592;DHT22;24356;48.460;11.450;2022-09-27T00:13:24;10.80;84.60
38592;DHT22;24356;48.460;11.450;2022-09-27T00:15:58;10.80;84.90
38592;DHT22;24356;48.460;11.450;2022-09-27T00:18:25;10.80;84.90
38592;DHT22;24356;48.460;11.450;2022-09-27T00:20:51;10.70;84.90
38592;DHT22;24356;48.460;11.450;2022-09-27T00:23:17;10.70;85.00
38592;DHT22;24356;48.460;11.450;2022-09-27T00:25:42;10.70;85.10
38592;DHT22;24356;48.460;11.450;2022-09-27T00:28:18;10.70;85.00
38592;DHT22;24356;48.460;11.450;2022-09-27T00:30:44;10.70;85.10
38592;DHT22;24356;48.460;11.450;2022-09-27T00:33:09;10.70;84.90
38592;DHT22;24356;48.460;11.450;2022-09-27T00:35:35;10.70;85.10
38592;DHT22;24356;48.460;11.450;2022-09-27T00:38:00;10.60;85.10
38592;DHT22;24356;48.460;11.450;2022-09-27T00:40:26;10.60;85.10
38592;DHT22;24356;48.460;11.450;2022-09-27T00:42:51;10.60;85.20
38592;DHT22;24356;48.460;11.450;2022-09-27T00:45:17;10.60;85.10
38592;DHT22;24356;48.460;11.450;2022-09-27T00:55:26;10.60;85.30
38592;DHT22;24356;48.460;11.450;2022-09-27T00:57:54;10.60;85.40
38592;DHT22;24356;48.460;11.450;2022-09-27T01:00:20;10.60;85.40
38592;DHT22;24356;48.460;11.450;2022-09-27T01:02:49;10.60;85.40
38592;DHT22;24356;48.460;11.450;2022-09-27T01:05:18;10.60;85.50
38592;DHT22;24356;48.460;11.450;2022-09-27T01:07:45;10.60;85.40
38592;DHT22;24356;48.460;11.450;2022-09-27T01:10:11;10.50;85.50
38592;DHT22;24356;48.460;11.450;2022-09-27T01:12:57;10.50;85.60
38592;DHT22;24356;48.460;11.450;2022-09-27T01:15:39;10.50;85.60
38592;DHT22;24356;48.460;11.450;2022-09-27T01:18:16;10.50;85.90
38592;DHT22;24356;48.460;11.450;2022-09-27T01:23:52;10.50;85.80
38592;DHT22;24356;48.460;11.450;2022-09-27T01:32:07;10.50;85.80
38592;DHT22;24356;48.460;11.450;2022-09-27T01:40:01;10.50;85.90
38592;DHT22;24356;48.460;11.450;2022-09-27T01:43:05;10.50;85.80
38592;DHT22;24356;48.460;11.450;2022-09-27T01:45:37;10.40;85.90
38592;DHT22;24356;48.460;11.450;2022-09-27T01:48:08;10.40;85.90
38592;DHT22;24356;48.460;11.450;2022-09-27T01:51:12;10.40;86.00
38592;DHT22;24356;48.460;11.450;2022-09-27T01:53:41;10.40;85.90
38592;DHT22;24356;48.460;11.450;2022-09-27T01:56:12;10.40;86.10
38592;DHT22;24356;48.460;11.450;2022-09-27T02:01:05;10.40;86.20
38592;DHT22;24356;48.460;11.450;2022-09-27T02:03:40;10.40;86.20
38592;DHT22;24356;48.460;11.450;2022-09-27T02:06:09;10.40;86.30
38592;DHT22;24356;48.460;11.450;2022-09-27T02:11:14;10.40;86.40
38592;DHT22;24356;48.460;11.450;2022-09-27T02:22:31;10.30;86.50
38592;DHT22;24356;48.460;11.450;2022-09-27T02:26:02;10.30;86.60
38592;DHT22;24356;48.460;11.450;2022-09-27T02:28:20;10.30;86.80
38592;DHT22;24356;48.460;11.450;2022-09-27T02:30:49;10.30;86.70
38592;DHT22;24356;48.460;11.450;2022-09-27T02:33:16;10.30;86.80
38592;DHT22;24356;48.460;11.450;2022-09-27T02:35:43;10.30;86.70
38592;DHT22;24356;48.460;11.450;2022-09-27T02:38:10;10.20;86.80
38592;DHT22;24356;48.460;11.450;2022-09-27T02:40:43;10.20;86.80
38592;DHT22;24356;48.460;11.450;2022-09-27T02:43:09;10.20;86.70
38592;DHT22;24356;48.460;11.450;2022-09-27T02:51:37;10.20;86.80
38592;DHT22;24356;48.460;11.450;2022-09-27T02:54:11;10.20;86.90
38592;DHT22;24356;48.460;11.450;2022-09-27T02:59:33;10.20;86.80
38592;DHT22;24356;48.460;11.450;2022-09-27T03:04:43;10.20;86.90
38592;DHT22;24356;48.460;11.450;2022-09-27T03:07:11;10.20;87.10
38592;DHT22;24356;48.460;11.450;2022-09-27T03:09:47;10.20;87.20
38592;DHT22;24356;48.460;11.450;2022-09-27T03:12:14;10.10;87.10
38592;DHT22;24356;48.460;11.450;2022-09-27T03:14:40;10.10;87.10
38592;DHT22;24356;48.460;11.450;2022-09-27T03:17:05;10.10;87.20
38592;DHT22;24356;48.460;11.450;2022-09-27T03:19:31;10.10;87.20
38592;DHT22;24356;48.460;11.450;2022-09-27T03:21:57;10.10;87.10
38592;DHT22;24356;48.460;11.450;2022-09-27T03:24:22;10.10;87.20
38592;DHT22;24356;48.460;11.450;2022-09-27T03:26:48;10.10;87.20
38592;DHT22;24356;48.460;11.450;2022-09-27T03:29:14;10.10;87.00
38592;DHT22;24356;48.460;11.450;2022-09-27T03:31:40;10.10;87.30
38592;DHT22;24356;48.460;11.450;2022-09-27T03:34:06;10.10;87.30
38592;DHT22;24356;48.460;11.450;2022-09-27T03:36:31;10.10;87.00
38592;DHT22;24356;48.460;11.450;2022-09-27T03:38:57;10.10;87.10
38592;DHT22;24356;48.460;11.450;2022-09-27T03:41:23;10.10;87.10
38592;DHT22;24356;48.460;11.450;2022-09-27T03:43:48;10.10;87.20
38592;DHT22;24356;48.460;11.450;2022-09-27T03:46:14;10.10;87.20
38592;DHT22;24356;48.460;11.450;2022-09-27T03:48:40;10.10;87.10
38592;DHT22;24356;48.460;11.450;2022-09-27T03:51:07;10.10;87.20
38592;DHT22;24356;48.460;11.450;2022-09-27T03:53:33;10.00;87.30
38592;DHT22;24356;48.460;11.450;2022-09-27T03:55:58;10.00;87.10
38592;DHT22;24356;48.460;11.450;2022-09-27T03:58:24;10.00;87.10
38592;DHT22;24356;48.460;11.450;2022-09-27T04:00:49;10.00;87.10
38592;DHT22;24356;48.460;11.450;2022-09-27T04:03:15;10.00;87.20
38592;DHT22;24356;48.460;11.450;2022-09-27T04:05:41;10.00;87.40
38592;DHT22;24356;48.460;11.450;2022-09-27T04:08:07;10.00;87.50
38592;DHT22;24356;48.460;11.450;2022-09-27T04:10:35;10.00;87.50
38592;DHT22;24356;48.460;11.450;2022-09-27T04:13:02;10.00;87.20
38592;DHT22;24356;48.460;11.450;2022-09-27T04:15:28;10.00;87.10
38592;DHT22;24356;48.460;11.450;2022-09-27T04:17:54;10.00;87.10
38592;DHT22;24356;48.460;11.450;2022-09-27T04:20:19;10.00;87.50
38592;DHT22;24356;48.460;11.450;2022-09-27T04:22:46;10.00;87.20
38592;DHT22;24356;48.460;11.450;2022-09-27T04:25:12;10.00;87.50
38592;DHT22;24356;48.460;11.450;2022-09-27T04:27:38;9.90;87.50
38592;DHT22;24356;48.460;11.450;2022-09-27T04:30:05;9.90;87.30
38592;DHT22;24356;48.460;11.450;2022-09-27T04:32:31;9.90;87.40
38592;DHT22;24356;48.460;11.450;2022-09-27T04:34:57;9.90;87.10
38592;DHT22;24356;48.460;11.450;2022-09-27T04:37:41;9.90;87.10
38592;DHT22;24356;48.460;11.450;2022-09-27T04:40:08;9.90;86.90
38592;DHT22;24356;48.460;11.450;2022-09-27T04:42:34;9.90;87.10
38592;DHT22;24356;48.460;11.450;2022-09-27T04:44:59;9.90;87.30
38592;DHT22;24356;48.460;11.450;2022-09-27T04:47:25;9.90;87.20
38592;DHT22;24356;48.460;11.450;2022-09-27T04:49:50;9.90;87.30
38592;DHT22;24356;48.460;11.450;2022-09-27T04:52:16;9.90;87.20
38592;DHT22;24356;48.460;11.450;2022-09-27T04:54:41;9.90;87.30
38592;DHT22;24356;48.460;11.450;2022-09-27T04:57:07;9.90;87.40
38592;DHT22;24356;48.460;11.450;2022-09-27T04:59:33;9.90;87.30
38592;DHT22;24356;48.460;11.450;2022-09-27T05:01:59;9.90;87.10
38592;DHT22;24356;48.460;11.450;2022-09-27T05:04:25;9.90;87.10
38592;DHT22;24356;48.460;11.450;2022-09-27T05:06:51;9.90;87.20
38592;DHT22;24356;48.460;11.450;2022-09-27T05:09:17;9.90;87.20
38592;DHT22;24356;48.460;11.450;2022-09-27T05:11:42;9.90;87.30
38592;DHT22;24356;48.460;11.450;2022-09-27T05:14:08;9.90;87.50
38592;DHT22;24356;48.460;11.450;2022-09-27T05:16:33;9.90;87.20
38592;DHT22;24356;48.460;11.450;2022-09-27T05:19:01;9.90;87.20
38592;DHT22;24356;48.460;11.450;2022-09-27T05:21:26;9.90;87.20
38592;DHT22;24356;48.460;11.450;2022-09-27T05:23:52;9.90;87.20
38592;DHT22;24356;48.460;11.450;2022-09-27T05:26:18;9.90;87.30
38592;DHT22;24356;48.460;11.450;2022-09-27T05:28:44;9.90;87.20
38592;DHT22;24356;48.460;11.450;2022-09-27T05:31:12;9.90;87.10
38592;DHT22;24356;48.460;11.450;2022-09-27T05:33:39;9.90;87.10
38592;DHT22;24356;48.460;11.450;2022-09-27T05:36:04;9.90;87.00
38592;DHT22;24356;48.460;11.450;2022-09-27T05:38:30;9.90;87.30
38592;DHT22;24356;48.460;11.450;2022-09-27T05:40:56;9.90;87.10
38592;DHT22;24356;48.460;11.450;2022-09-27T05:43:22;9.90;87.30
38592;DHT22;24356;48.460;11.450;2022-09-27T05:45:49;9.90;87.10
38592;DHT22;24356;48.460;11.450;2022-09-27T05:48:17;9.90;87.20
38592;DHT22;24356;48.460;11.450;2022-09-27T05:50:43;9.90;87.20
38592;DHT22;24356;48.460;11.450;2022-09-27T05:53:10;9.90;87.20
38592;DHT22;24356;48.460;11.450;2022-09-27T05:55:35;9.90;87.20
38592;DHT22;24356;48.460;11.450;2022-09-27T05:58:03;9.90;87.40
38592;DHT22;24356;48.460;11.450;2022-09-27T06:00:30;9.90;87.30
38592;DHT22;24356;48.460;11.450;2022-09-27T06:02:57;9.90;87.30
38592;DHT22;24356;48.460;11.450;2022-09-27T06:05:25;9.90;87.20
38592;DHT22;24356;48.460;11.450;2022-09-27T06:07:52;9.90;87.30
38592;DHT22;24356;48.460;11.450;2022-09-27T06:10:22;9.90;87.30
38592;DHT22;24356;48.460;11.450;2022-09-27T06:12:47;9.90;87.40
38592;DHT22;24356;48.460;11.450;2022-09-27T06:15:14;9.90;87.60
38592;DHT22;24356;48.460;11.450;2022-09-27T06:17:40;9.90;87.20
38592;DHT22;24356;48.460;11.450;2022-09-27T06:20:06;9.90;87.40
38592;DHT22;24356;48.460;11.450;2022-09-27T06:22:33;9.90;87.40
38592;DHT22;24356;48.460;11.450;2022-09-27T06:24:58;9.90;87.20
38592;DHT22;24356;48.460;11.450;2022-09-27T06:27:24;9.80;87.30
38592;DHT22;24356;48.460;11.450;2022-09-27T06:29:50;9.90;87.20
38592;DHT22;24356;48.460;11.450;2022-09-27T06:32:17;9.80;87.30
38592;DHT22;24356;48.460;11.450;2022-09-27T06:34:43;9.80;87.30
38592;DHT22;24356;48.460;11.450;2022-09-27T06:37:08;9.80;87.20
38592;DHT22;24356;48.460;11.450;2022-09-27T06:39:34;9.90;87.20
38592;DHT22;24356;48.460;11.450;2022-09-27T06:41:59;9.90;87.10
38592;DHT22;24356;48.460;11.450;2022-09-27T06:44:27;9.90;87.00
38592;DHT22;24356;48.460;11.450;2022-09-27T06:46:53;9.90;87.10
38592;DHT22;24356;48.460;11.450;2022-09-27T06:49:21;9.90;87.50
38592;DHT22;24356;48.460;11.450;2022-09-27T06:51:50;9.90;87.80
38592;DHT22;24356;48.460;11.450;2022-09-27T06:54:17;10.00;87.90
38592;DHT22;24356;48.460;11.450;2022-09-27T06:56:42;10.00;87.70
38592;DHT22;24356;48.460;11.450;2022-09-27T06:59:08;10.10;87.70
38592;DHT22;24356;48.460;11.450;2022-09-27T07:01:52;10.10;87.40
38592;DHT22;24356;48.460;11.450;2022-09-27T07:04:18;10.10;87.60
38592;DHT22;24356;48.460;11.450;2022-09-27T07:06:44;10.10;87.50
38592;DHT22;24356;48.460;11.450;2022-09-27T07:09:09;10.10;87.20
38592;DHT22;24356;48.460;11.450;2022-09-27T07:11:35;10.20;87.20
38592;DHT22;24356;48.460;11.450;2022-09-27T07:14:02;10.20;87.20
38592;DHT22;24356;48.460;11.450;2022-09-27T07:16:29;10.20;86.90
38592;DHT22;24356;48.460;11.450;2022-09-27T07:18:59;10.20;86.80
38592;DHT22;24356;48.460;11.450;2022-09-27T07:21:25;10.20;86.70
38592;DHT22;24356;48.460;11.450;2022-09-27T07:23:51;10.30;86.70
38592;DHT22;24356;48.460;11.450;2022-09-27T07:26:16;10.30;87.10
38592;DHT22;24356;48.460;11.450;2022-09-27T07:28:42;10.40;87.30
38592;DHT22;24356;48.460;11.450;2022-09-27T07:31:09;10.40;87.20
38592;DHT22;24356;48.460;11.450;2022-09-27T07:33:36;10.50;87.30
38592;DHT22;24356;48.460;11.450;2022-09-27T07:36:10;10.50;86.90
38592;DHT22;24356;48.460;11.450;2022-09-27T07:38:36;10.60;86.80
38592;DHT22;24356;48.460;11.450;2022-09-27T07:41:07;10.60;86.60
38592;DHT22;24356;48.460;11.450;2022-09-27T07:43:33;10.70;86.70
38592;DHT22;24356;48.460;11.450;2022-09-27T07:45:59;10.70;86.40
38592;DHT22;24356;48.460;11.450;2022-09-27T07:48:27;10.80;86.40
38592;DHT22;24356;48.460;11.450;2022-09-27T07:50:54;10.80;86.50
38592;DHT22;24356;48.460;11.450;2022-09-27T07:53:20;10.90;86.50
38592;DHT22;24356;48.460;11.450;2022-09-27T07:55:50;10.90;86.10
38592;DHT22;24356;48.460;11.450;2022-09-27T07:58:20;11.00;86.30
38592;DHT22;24356;48.460;11.450;2022-09-27T08:00:46;11.10;86.20
38592;DHT22;24356;48.460;11.450;2022-09-27T08:03:14;11.10;85.90
38592;DHT22;24356;48.460;11.450;2022-09-27T08:05:43;11.20;85.60
38592;DHT22;24356;48.460;11.450;2022-09-27T08:08:10;11.20;85.50
38592;DHT22;24356;48.460;11.450;2022-09-27T08:10:35;11.20;85.40
38592;DHT22;24356;48.460;11.450;2022-09-27T08:13:01;11.20;85.20
38592;DHT22;24356;48.460;11.450;2022-09-27T08:15:33;11.20;85.40
38592;DHT22;24356;48.460;11.450;2022-09-27T08:18:03;11.20;85.30
38592;DHT22;24356;48.460;11.450;2022-09-27T08:20:29;11.20;85.20
38592;DHT22;24356;48.460;11.450;2022-09-27T08:22:54;11.20;85.30
38592;DHT22;24356;48.460;11.450;2022-09-27T08:25:21;11.20;85.10
38592;DHT22;24356;48.460;11.450;2022-09-27T08:27:59;11.20;85.20
38592;DHT22;24356;48.460;11.450;2022-09-27T08:30:25;11.20;85.00
38592;DHT22;24356;48.460;11.450;2022-09-27T08:32:56;11.30;85.00
38592;DHT22;24356;48.460;11.450;2022-09-27T08:35:22;11.30;85.00
38592;DHT22;24356;48.460;11.450;2022-09-27T08:37:58;11.40;84.90
38592;DHT22;24356;48.460;11.450;2022-09-27T08:46:04;11.50;84.70
38592;DHT22;24356;48.460;11.450;2022-09-27T08:48:58;11.60;84.80
38592;DHT22;24356;48.460;11.450;2022-09-27T08:51:31;11.70;84.80
38592;DHT22;24356;48.460;11.450;2022-09-27T08:54:23;11.90;84.70
38592;DHT22;24356;48.460;11.450;2022-09-27T08:56:52;12.00;84.50
38592;DHT22;24356;48.460;11.450;2022-09-27T08:59:22;12.00;84.30
38592;DHT22;24356;48.460;11.450;2022-09-27T09:01:50;12.00;84.00
38592;DHT22;24356;48.460;11.450;2022-09-27T09:04:37;12.00;83.70
38592;DHT22;24356;48.460;11.450;2022-09-27T09:07:16;12.00;83.50
38592;DHT22;24356;48.460;11.450;2022-09-27T09:21:39;12.10;83.00
38592;DHT22;24356;48.460;11.450;2022-09-27T09:24:35;12.30;83.50
38592;DHT22;24356;48.460;11.450;2022-09-27T09:30:10;12.90;81.70
38592;DHT22;24356;48.460;11.450;2022-09-27T09:35:17;13.10;80.40
38592;DHT22;24356;48.460;11.450;2022-09-27T09:37:52;13.20;80.20
38592;DHT22;24356;48.460;11.450;2022-09-27T09:40:40;13.20;79.90
38592;DHT22;24356;48.460;11.450;2022-09-27T09:43:32;13.20;80.00
38592;DHT22;24356;48.460;11.450;2022-09-27T09:46:39;13.30;79.70
38592;DHT22;24356;48.460;11.450;2022-09-27T09:51:46;13.40;78.80
38592;DHT22;24356;48.460;11.450;2022-09-27T09:57:17;13.30;78.90
38592;DHT22;24356;48.460;11.450;2022-09-27T09:59:48;13.20;79.20
38592;DHT22;24356;48.460;11.450;2022-09-27T10:02:37;13.10;79.50
38592;DHT22;24356;48.460;11.450;2022-09-27T10:05:05;13.00;79.60
38592;DHT22;24356;48.460;11.450;2022-09-27T10:07:32;13.00;79.50
38592;DHT22;24356;48.460;11.450;2022-09-27T10:10:04;12.90;79.50
38592;DHT22;24356;48.460;11.450;2022-09-27T10:12:30;12.90;79.60
38592;DHT22;24356;48.460;11.450;2022-09-27T10:15:02;12.80;79.70
38592;DHT22;24356;48.460;11.450;2022-09-27T10:17:35;12.80;79.60
38592;DHT22;24356;48.460;11.450;2022-09-27T10:20:04;12.70;79.80
38592;DHT22;24356;48.460;11.450;2022-09-27T10:22:39;12.70;79.70
38592;DHT22;24356;48.460;11.450;2022-09-27T10:25:08;12.70;79.70
38592;DHT22;24356;48.460;11.450;2022-09-27T10:30:05;12.70;79.60
38592;DHT22;24356;48.460;11.450;2022-09-27T10:32:33;12.80;79.70
38592;DHT22;24356;48.460;11.450;2022-09-27T10:35:41;12.80;79.60
38592;DHT22;24356;48.460;11.450;2022-09-27T10:40:43;12.70;79.00
38592;DHT22;24356;48.460;11.450;2022-09-27T10:43:34;12.70;78.90
38592;DHT22;24356;48.460;11.450;2022-09-27T10:46:18;12.70;79.00
38592;DHT22;24356;48.460;11.450;2022-09-27T10:48:46;12.60;79.10
38592;DHT22;24356;48.460;11.450;2022-09-27T10:51:28;12.60;79.00
38592;DHT22;24356;48.460;11.450;2022-09-27T10:53:54;12.50;79.20
38592;DHT22;24356;48.460;11.450;2022-09-27T10:56:32;12.50;79.30
38592;DHT22;24356;48.460;11.450;2022-09-27T10:58:59;12.50;79.20
38592;DHT22;24356;48.460;11.450;2022-09-27T11:01:42;12.50;79.20
38592;DHT22;24356;48.460;11.450;2022-09-27T11:04:39;12.50;79.20
38592;DHT22;24356;48.460;11.450;2022-09-27T11:07:17;12.40;79.40
38592;DHT22;24356;48.460;11.450;2022-09-27T11:09:56;12.50;79.20
38592;DHT22;24356;48.460;11.450;2022-09-27T11:12:28;12.70;79.40
38592;DHT22;24356;48.460;11.450;2022-09-27T11:14:58;12.90;79.30
38592;DHT22;24356;48.460;11.450;2022-09-27T11:17:26;13.10;78.60
38592;DHT22;24356;48.460;11.450;2022-09-27T11:20:02;13.30;78.10
38592;DHT22;24356;48.460;11.450;2022-09-27T11:22:57;13.40;77.50
38592;DHT22;24356;48.460;11.450;2022-09-27T11:28:43;13.60;77.00
38592;DHT22;24356;48.460;11.450;2022-09-27T11:31:35;13.60;76.50
38592;DHT22;24356;48.460;11.450;2022-09-27T11:37:20;13.60;76.70
38592;DHT22;24356;48.460;11.450;2022-09-27T12:01:32;13.30;76.10
38592;DHT22;24356;48.460;11.450;2022-09-27T12:09:51;13.00;78.50
38592;DHT22;24356;48.460;11.450;2022-09-27T12:12:27;12.90;78.80
38592;DHT22;24356;48.460;11.450;2022-09-27T12:15:15;12.90;79.00
38592;DHT22;24356;48.460;11.450;2022-09-27T12:17:44;12.80;79.30
38592;DHT22;24356;48.460;11.450;2022-09-27T12:20:24;12.90;79.50
38592;DHT22;24356;48.460;11.450;2022-09-27T12:23:20;12.90;79.70
38592;DHT22;24356;48.460;11.450;2022-09-27T12:25:47;12.90;79.80
38592;DHT22;24356;48.460;11.450;2022-09-27T12:28:21;13.00;79.80
38592;DHT22;24356;48.460;11.450;2022-09-27T12:30:56;13.10;79.70
38592;DHT22;24356;48.460;11.450;2022-09-27T12:33:36;13.10;79.30
38592;DHT22;24356;48.460;11.450;2022-09-27T12:36:07;13.20;79.10
38592;DHT22;24356;48.460;11.450;2022-09-27T12:38:45;13.20;78.90
38592;DHT22;24356;48.460;11.450;2022-09-27T12:41:15;13.30;78.80
38592;DHT22;24356;48.460;11.450;2022-09-27T12:43:44;13.40;78.80
38592;DHT22;24356;48.460;11.450;2022-09-27T12:46:20;13.40;78.90
38592;DHT22;24356;48.460;11.450;2022-09-27T12:52:14;13.50;78.50
38592;DHT22;24356;48.460;11.450;2022-09-27T12:55:10;13.60;78.70
38592;DHT22;24356;48.460;11.450;2022-09-27T13:06:39;14.00;77.80
38592;DHT22;24356;48.460;11.450;2022-09-27T13:09:24;14.10;77.50
38592;DHT22;24356;48.460;11.450;2022-09-27T13:25:52;14.10;75.80
38592;DHT22;24356;48.460;11.450;2022-09-27T13:28:32;14.00;75.80
38592;DHT22;24356;48.460;11.450;2022-09-27T13:31:05;14.00;75.90
38592;DHT22;24356;48.460;11.450;2022-09-27T13:33:52;14.00;76.10
38592;DHT22;24356;48.460;11.450;2022-09-27T13:36:28;14.00;76.40
38592;DHT22;24356;48.460;11.450;2022-09-27T13:47:43;14.40;76.40
38592;DHT22;24356;48.460;11.450;2022-09-27T13:50:25;14.50;76.10
38592;DHT22;24356;48.460;11.450;2022-09-27T13:55:40;14.70;76.00
38592;DHT22;24356;48.460;11.450;2022-09-27T13:58:26;14.70;75.90
38592;DHT22;24356;48.460;11.450;2022-09-27T14:01:00;14.70;75.50
38592;DHT22;24356;48.460;11.450;2022-09-27T14:03:29;14.70;75.30
38592;DHT22;24356;48.460;11.450;2022-09-27T14:06:06;14.60;75.00
38592;DHT22;24356;48.460;11.450;2022-09-27T14:08:43;14.60;74.90
38592;DHT22;24356;48.460;11.450;2022-09-27T14:11:32;14.50;75.10
38592;DHT22;24356;48.460;11.450;2022-09-27T14:13:57;14.50;75.40
38592;DHT22;24356;48.460;11.450;2022-09-27T14:16:25;14.50;75.50
38592;DHT22;24356;48.460;11.450;2022-09-27T14:18:54;14.50;75.40
38592;DHT22;24356;48.460;11.450;2022-09-27T14:21:31;14.50;74.90
38592;DHT22;24356;48.460;11.450;2022-09-27T14:24:19;14.40;74.80
38592;DHT22;24356;48.460;11.450;2022-09-27T14:26:44;14.40;74.50
38592;DHT22;24356;48.460;11.450;2022-09-27T14:29:19;14.30;74.40
38592;DHT22;24356;48.460;11.450;2022-09-27T14:31:45;14.30;74.40
38592;DHT22;24356;48.460;11.450;2022-09-27T14:34:13;14.30;74.30
38592;DHT22;24356;48.460;11.450;2022-09-27T14:36:39;14.20;73.80
38592;DHT22;24356;48.460;11.450;2022-09-27T14:39:31;14.20;74.20
38592;DHT22;24356;48.460;11.450;2022-09-27T14:41:58;14.10;74.30
38592;DHT22;24356;48.460;11.450;2022-09-27T14:44:25;14.00;74.40
38592;DHT22;24356;48.460;11.450;2022-09-27T14:49:47;13.80;74.50
38592;DHT22;24356;48.460;11.450;2022-09-27T14:52:25;13.80;74.50
38592;DHT22;24356;48.460;11.450;2022-09-27T14:54:57;13.70;75.10
38592;DHT22;24356;48.460;11.450;2022-09-27T14:57:24;13.60;75.60
38592;DHT22;24356;48.460;11.450;2022-09-27T14:59:51;13.50;75.90
38592;DHT22;24356;48.460;11.450;2022-09-27T15:02:19;13.40;76.20
38592;DHT22;24356;48.460;11.450;2022-09-27T15:04:49;13.30;76.60
38592;DHT22;24356;48.460;11.450;2022-09-27T15:07:16;13.20;77.00
38592;DHT22;24356;48.460;11.450;2022-09-27T15:09:44;13.10;77.20
38592;DHT22;24356;48.460;11.450;2022-09-27T15:12:12;13.10;77.50
38592;DHT22;24356;48.460;11.450;2022-09-27T15:14:40;13.00;77.70
38592;DHT22;24356;48.460;11.450;2022-09-27T15:17:17;12.90;78.00
38592;DHT22;24356;48.460;11.450;2022-09-27T15:22:53;12.80;78.10
38592;DHT22;24356;48.460;11.450;2022-09-27T15:25:24;12.70;78.30
38592;DHT22;24356;48.460;11.450;2022-09-27T15:27:57;12.70;78.50
38592;DHT22;24356;48.460;11.450;2022-09-27T15:30:36;12.60;78.70
38592;DHT22;24356;48.460;11.450;2022-09-27T15:33:03;12.50;78.90
38592;DHT22;24356;48.460;11.450;2022-09-27T15:35:31;12.40;79.10
38592;DHT22;24356;48.460;11.450;2022-09-27T15:40:57;12.20;79.40
38592;DHT22;24356;48.460;11.450;2022-09-27T15:46:25;12.00;79.70
38592;DHT22;24356;48.460;11.450;2022-09-27T15:49:18;11.90;80.00
38592;DHT22;24356;48.460;11.450;2022-09-27T15:51:46;11.90;80.10
38592;DHT22;24356;48.460;11.450;2022-09-27T15:54:12;11.90;80.30
38592;DHT22;24356;48.460;11.450;2022-09-27T15:56:38;11.80;80.50
38592;DHT22;24356;48.460;11.450;2022-09-27T15:59:05;11.80;80.50
38592;DHT22;24356;48.460;11.450;2022-09-27T16:01:32;11.80;80.70
38592;DHT22;24356;48.460;11.450;2022-09-27T16:03:58;11.70;80.70
38592;DHT22;24356;48.460;11.450;2022-09-27T16:06:25;11.70;80.90
38592;DHT22;24356;48.460;11.450;2022-09-27T16:08:52;11.60;80.90
38592;DHT22;24356;48.460;11.450;2022-09-27T16:11:17;11.60;80.80
38592;DHT22;24356;48.460;11.450;2022-09-27T16:13:43;11.50;80.90
38592;DHT22;24356;48.460;11.450;2022-09-27T16:16:14;11.50;81.00
38592;DHT22;24356;48.460;11.450;2022-09-27T16:18:42;11.50;81.00
38592;DHT22;24356;48.460;11.450;2022-09-27T16:21:07;11.40;81.00
38592;DHT22;24356;48.460;11.450;2022-09-27T16:23:33;11.40;80.90
38592;DHT22;24356;48.460;11.450;2022-09-27T16:25:59;11.40;80.80
38592;DHT22;24356;48.460;11.450;2022-09-27T16:28:26;11.30;81.00
38592;DHT22;24356;48.460;11.450;2022-09-27T16:30:51;11.30;81.00
38592;DHT22;24356;48.460;11.450;2022-09-27T16:33:17;11.30;81.10
38592;DHT22;24356;48.460;11.450;2022-09-27T16:35:43;11.20;81.40
38592;DHT22;24356;48.460;11.450;2022-09-27T16:38:09;11.20;81.40
38592;DHT22;24356;48.460;11.450;2022-09-27T16:40:35;11.10;81.30
38592;DHT22;24356;48.460;11.450;2022-09-27T16:43:01;11.10;81.60
38592;DHT22;24356;48.460;11.450;2022-09-27T16:45:32;11.00;81.60
38592;DHT22;24356;48.460;11.450;2022-09-27T16:47:59;11.00;81.70
38592;DHT22;24356;48.460;11.450;2022-09-27T16:50:25;11.00;81.80
38592;DHT22;24356;48.460;11.450;2022-09-27T16:53:09;11.00;81.80
38592;DHT22;24356;48.460;11.450;2022-09-27T16:55:36;11.00;82.00
38592;DHT22;24356;48.460;11.450;2022-09-27T16:58:01;10.90;82.00
38592;DHT22;24356;48.460;11.450;2022-09-27T17:00:30;10.80;82.30
38592;DHT22;24356;48.460;11.450;2022-09-27T17:02:58;10.80;82.10
38592;DHT22;24356;48.460;11.450;2022-09-27T17:05:23;10.80;82.10
38592;DHT22;24356;48.460;11.450;2022-09-27T17:07:53;10.70;82.50
38592;DHT22;24356;48.460;11.450;2022-09-27T17:10:20;10.70;82.40
38592;DHT22;24356;48.460;11.450;2022-09-27T17:15:18;10.60;82.90
38592;DHT22;24356;48.460;11.450;2022-09-27T17:17:48;10.60;82.90
38592;DHT22;24356;48.460;11.450;2022-09-27T17:20:14;10.50;82.90
38592;DHT22;24356;48.460;11.450;2022-09-27T17:22:41;10.50;82.90
38592;DHT22;24356;48.460;11.450;2022-09-27T17:25:07;10.40;83.20
38592;DHT22;24356;48.460;11.450;2022-09-27T17:27:33;10.30;83.20
38592;DHT22;24356;48.460;11.450;2022-09-27T17:29:58;10.30;83.20
38592;DHT22;24356;48.460;11.450;2022-09-27T17:32:24;10.20;83.40
38592;DHT22;24356;48.460;11.450;2022-09-27T17:34:50;10.20;83.50
38592;DHT22;24356;48.460;11.450;2022-09-27T17:37:16;10.10;83.60
38592;DHT22;24356;48.460;11.450;2022-09-27T17:39:42;10.10;83.60
38592;DHT22;24356;48.460;11.450;2022-09-27T17:42:07;10.00;83.60
38592;DHT22;24356;48.460;11.450;2022-09-27T17:44:33;10.00;83.70
38592;DHT22;24356;48.460;11.450;2022-09-27T17:46:59;9.90;83.90
38592;DHT22;24356;48.460;11.450;2022-09-27T17:49:43;9.90;83.80
38592;DHT22;24356;48.460;11.450;2022-09-27T17:52:27;9.80;83.80
38592;DHT22;24356;48.460;11.450;2022-09-27T17:54:55;9.80;84.10
38592;DHT22;24356;48.460;11.450;2022-09-27T17:57:22;9.70;84.00
38592;DHT22;24356;48.460;11.450;2022-09-27T17:59:48;9.70;84.20
38592;DHT22;24356;48.460;11.450;2022-09-27T18:02:14;9.60;84.10
38592;DHT22;24356;48.460;11.450;2022-09-27T18:04:39;9.60;84.30
38592;DHT22;24356;48.460;11.450;2022-09-27T18:07:05;9.60;84.40
38592;DHT22;24356;48.460;11.450;2022-09-27T18:09:30;9.50;84.30
38592;DHT22;24356;48.460;11.450;2022-09-27T18:11:56;9.50;84.40
38592;DHT22;24356;48.460;11.450;2022-09-27T18:14:25;9.50;84.40
38592;DHT22;24356;48.460;11.450;2022-09-27T18:16:51;9.40;84.40
38592;DHT22;24356;48.460;11.450;2022-09-27T18:19:22;9.40;84.50
38592;DHT22;24356;48.460;11.450;2022-09-27T18:21:49;9.30;84.50
38592;DHT22;24356;48.460;11.450;2022-09-27T18:24:15;9.30;84.60
38592;DHT22;24356;48.460;11.450;2022-09-27T18:26:41;9.30;84.80